sensor_id;sensor_type;location;lat;lon;timestamp;temperature;humidity
8563;DHT22;16392;52.508;13.468;2024-03-08T00:00:46;2.10;99.90
8563;DHT22;16392;52.508;13.468;2024-03-08T00:03:13;2.00;99.90
8563;DHT22;16392;52.508;13.468;2024-03-08T00:05:39;2.00;99.90
8563;DHT22;16392;52.508;13.468;2024-03-08T00:08:06;2.10;99.90
8563;DHT22;16392;52.508;13.468;2024-03-08T00:10:36;2.20;99.90
8563;DHT22;16392;52.508;13.468;2024-03-08T00:13:04;2.10;99.90
8563;DHT22;16392;52.508;13.468;2024-03-08T00:15:33;2.10;99.90
8563;DHT22;16392;52.508;13.468;2024-03-08T00:18:00;2.00;99.90
8563;DHT22;16392;52.508;13.468;2024-03-08T00:20:27;1.90;99.90
8563;DHT22;16392;52.508;13.468;2024-03-08T00:22:54;2.00;99.90
8563;DHT22;16392;52.508;13.468;2024-03-08T00:25:23;1.90;99.90
8563;DHT22;16392;52.508;13.468;2024-03-08T00:27:50;2.10;99.90
8563;DHT22;16392;52.508;13.468;2024-03-08T00:30:21;2.10;99.90
8563;DHT22;16392;52.508;13.468;2024-03-08T00:32:49;2.10;99.90
8563;DHT22;16392;52.508;13.468;2024-03-08T00:35:16;2.00;99.90
8563;DHT22;16392;52.508;13.468;2024-03-08T00:37:43;1.80;99.90
8563;DHT22;16392;52.508;13.468;2024-03-08T00:40:12;1.80;99.90
8563;DHT22;16392;52.508;13.468;2024-03-08T00:42:40;1.80;99.90
8563;DHT22;16392;52.508;13.468;2024-03-08T00:45:07;1.90;99.90
8563;DHT22;16392;52.508;13.468;2024-03-08T00:47:35;1.90;99.90
8563;DHT22;16392;52.508;13.468;2024-03-08T00:50:05;1.80;99.90
8563;DHT22;16392;52.508;13.468;2024-03-08T00:52:32;1.70;99.90
8563;DHT22;16392;52.508;13.468;2024-03-08T00:55:00;1.60;99.90
8563;DHT22;16392;52.508;13.468;2024-03-08T00:57:27;1.60;99.90
8563;DHT22;16392;52.508;13.468;2024-03-08T00:59:54;1.70;99.90
8563;DHT22;16392;52.508;13.468;2024-03-08T01:02:23;1.70;99.90
8563;DHT22;16392;52.508;13.468;2024-03-08T01:04:50;1.60;99.90
8563;DHT22;16392;52.508;13.468;2024-03-08T01:07:18;1.60;99.90
8563;DHT22;16392;52.508;13.468;2024-03-08T01:09:45;1.60;99.90
8563;DHT22;16392;52.508;13.468;2024-03-08T01:12:13;1.50;99.90
8563;DHT22;16392;52.508;13.468;2024-03-08T01:14:40;1.50;99.90
8563;DHT22;16392;52.508;13.468;2024-03-08T01:17:06;1.50;99.90
8563;DHT22;16392;52.508;13.468;2024-03-08T01:19:35;1.50;99.90
8563;DHT22;16392;52.508;13.468;2024-03-08T01:22:02;1.60;99.90
8563;DHT22;16392;52.508;13.468;2024-03-08T01:24:30;1.70;99.90
8563;DHT22;16392;52.508;13.468;2024-03-08T01:26:57;1.80;99.90
8563;DHT22;16392;52.508;13.468;2024-03-08T01:29:23;1.70;99.90
8563;DHT22;16392;52.508;13.468;2024-03-08T01:31:50;1.60;99.90
8563;DHT22;16392;52.508;13.468;2024-03-08T01:34:26;1.50;99.90
8563;DHT22;16392;52.508;13.468;2024-03-08T01:36:54;1.60;99.90
8563;DHT22;16392;52.508;13.468;2024-03-08T01:39:22;1.50;99.90
8563;DHT22;16392;52.508;13.468;2024-03-08T01:41:50;1.40;99.90
8563;DHT22;16392;52.508;13.468;2024-03-08T01:44:17;1.50;99.90
8563;DHT22;16392;52.508;13.468;2024-03-08T01:46:44;1.50;99.90
8563;DHT22;16392;52.508;13.468;2024-03-08T01:49:12;1.50;99.90
8563;DHT22;16392;52.508;13.468;2024-03-08T01:51:40;1.50;99.90
8563;DHT22;16392;52.508;13.468;2024-03-08T01:54:08;1.50;99.90
8563;DHT22;16392;52.508;13.468;2024-03-08T01:56:37;1.50;99.90
8563;DHT22;16392;52.508;13.468;2024-03-08T01:59:06;1.50;99.90
8563;DHT22;16392;52.508;13.468;2024-03-08T02:01:33;1.60;99.90
8563;DHT22;16392;52.508;13.468;2024-03-08T02:04:00;1.60;99.90
8563;DHT22;16392;52.508;13.468;2024-03-08T02:06:27;1.40;99.90
8563;DHT22;16392;52.508;13.468;2024-03-08T02:08:56;1.40;99.90
8563;DHT22;16392;52.508;13.468;2024-03-08T02:11:23;1.40;99.90
8563;DHT22;16392;52.508;13.468;2024-03-08T02:13:50;1.50;99.90
8563;DHT22;16392;52.508;13.468;2024-03-08T02:16:22;1.50;99.90
8563;DHT22;16392;52.508;13.468;2024-03-08T02:18:49;1.50;99.90
8563;DHT22;16392;52.508;13.468;2024-03-08T02:21:18;1.40;99.90
8563;DHT22;16392;52.508;13.468;2024-03-08T02:23:46;1.40;99.90
8563;DHT22;16392;52.508;13.468;2024-03-08T02:26:13;1.40;99.90
8563;DHT22;16392;52.508;13.468;2024-03-08T02:28:41;1.30;99.90
8563;DHT22;16392;52.508;13.468;2024-03-08T02:31:09;1.30;99.90
8563;DHT22;16392;52.508;13.468;2024-03-08T02:33:36;1.30;99.90
8563;DHT22;16392;52.508;13.468;2024-03-08T02:36:05;1.30;99.90
8563;DHT22;16392;52.508;13.468;2024-03-08T02:38:33;1.30;99.90
8563;DHT22;16392;52.508;13.468;2024-03-08T02:41:06;1.30;99.90
8563;DHT22;16392;52.508;13.468;2024-03-08T02:43:34;1.20;99.90
8563;DHT22;16392;52.508;13.468;2024-03-08T02:46:02;1.20;99.90
8563;DHT22;16392;52.508;13.468;2024-03-08T02:48:30;1.20;99.90
8563;DHT22;16392;52.508;13.468;2024-03-08T02:50:59;1.30;99.90
8563;DHT22;16392;52.508;13.468;2024-03-08T02:53:27;1.40;99.90
8563;DHT22;16392;52.508;13.468;2024-03-08T02:55:57;1.40;99.90
8563;DHT22;16392;52.508;13.468;2024-03-08T02:58:24;1.30;99.90
8563;DHT22;16392;52.508;13.468;2024-03-08T03:00:51;1.20;99.90
8563;DHT22;16392;52.508;13.468;2024-03-08T03:03:19;1.20;99.90
8563;DHT22;16392;52.508;13.468;2024-03-08T03:05:45;1.20;99.90
8563;DHT22;16392;52.508;13.468;2024-03-08T03:08:12;1.20;99.90
8563;DHT22;16392;52.508;13.468;2024-03-08T03:10:41;1.20;99.90
8563;DHT22;16392;52.508;13.468;2024-03-08T03:13:09;1.10;99.90
8563;DHT22;16392;52.508;13.468;2024-03-08T03:15:35;1.10;99.90
8563;DHT22;16392;52.508;13.468;2024-03-08T03:18:03;1.00;99.90
8563;DHT22;16392;52.508;13.468;2024-03-08T03:20:33;1.10;99.90
8563;DHT22;16392;52.508;13.468;2024-03-08T03:23:05;1.10;99.90
8563;DHT22;16392;52.508;13.468;2024-03-08T03:25:34;1.10;99.90
8563;DHT22;16392;52.508;13.468;2024-03-08T03:28:02;1.00;99.90
8563;DHT22;16392;52.508;13.468;2024-03-08T03:30:31;1.00;99.90
8563;DHT22;16392;52.508;13.468;2024-03-08T03:32:59;1.00;99.90
8563;DHT22;16392;52.508;13.468;2024-03-08T03:35:27;1.10;99.90
8563;DHT22;16392;52.508;13.468;2024-03-08T03:37:55;1.10;99.90
8563;DHT22;16392;52.508;13.468;2024-03-08T03:40:32;1.10;99.90
8563;DHT22;16392;52.508;13.468;2024-03-08T03:43:01;1.00;99.90
8563;DHT22;16392;52.508;13.468;2024-03-08T03:45:29;1.10;99.90
8563;DHT22;16392;52.508;13.468;2024-03-08T03:48:01;1.10;99.90
8563;DHT22;16392;52.508;13.468;2024-03-08T03:50:28;1.10;99.90
8563;DHT22;16392;52.508;13.468;2024-03-08T03:52:55;1.20;99.90
8563;DHT22;16392;52.508;13.468;2024-03-08T03:55:22;1.20;99.90
8563;DHT22;16392;52.508;13.468;2024-03-08T03:57:48;1.20;99.90
8563;DHT22;16392;52.508;13.468;2024-03-08T04:00:16;1.20;99.90
8563;DHT22;16392;52.508;13.468;2024-03-08T04:02:42;1.10;99.90
8563;DHT22;16392;52.508;13.468;2024-03-08T04:05:11;1.10;99.90
8563;DHT22;16392;52.508;13.468;2024-03-08T04:07:38;1.10;99.90
8563;DHT22;16392;52.508;13.468;2024-03-08T04:10:16;1.10;99.90
8563;DHT22;16392;52.508;13.468;2024-03-08T04:12:43;1.10;99.90
8563;DHT22;16392;52.508;13.468;2024-03-08T04:15:09;1.10;99.90
8563;DHT22;16392;52.508;13.468;2024-03-08T04:17:36;1.00;99.90
8563;DHT22;16392;52.508;13.468;2024-03-08T04:20:05;0.90;99.90
8563;DHT22;16392;52.508;13.468;2024-03-08T04:22:36;0.80;99.90
8563;DHT22;16392;52.508;13.468;2024-03-08T04:25:03;0.70;99.90
8563;DHT22;16392;52.508;13.468;2024-03-08T04:27:31;0.60;99.90
8563;DHT22;16392;52.508;13.468;2024-03-08T04:30:00;0.70;99.90
8563;DHT22;16392;52.508;13.468;2024-03-08T04:32:27;0.70;99.90
8563;DHT22;16392;52.508;13.468;2024-03-08T04:34:55;0.60;99.90
8563;DHT22;16392;52.508;13.468;2024-03-08T04:37:22;0.60;99.90
8563;DHT22;16392;52.508;13.468;2024-03-08T04:39:50;0.60;99.90
8563;DHT22;16392;52.508;13.468;2024-03-08T04:42:17;0.60;99.90
8563;DHT22;16392;52.508;13.468;2024-03-08T04:44:47;0.60;99.90
8563;DHT22;16392;52.508;13.468;2024-03-08T04:47:14;0.60;99.90
8563;DHT22;16392;52.508;13.468;2024-03-08T04:49:43;0.50;99.90
8563;DHT22;16392;52.508;13.468;2024-03-08T04:52:10;0.50;99.90
8563;DHT22;16392;52.508;13.468;2024-03-08T04:54:37;0.40;99.90
8563;DHT22;16392;52.508;13.468;2024-03-08T04:57:06;0.40;99.90
8563;DHT22;16392;52.508;13.468;2024-03-08T04:59:33;0.40;99.90
8563;DHT22;16392;52.508;13.468;2024-03-08T05:02:01;0.50;99.90
8563;DHT22;16392;52.508;13.468;2024-03-08T05:04:28;0.40;99.90
8563;DHT22;16392;52.508;13.468;2024-03-08T05:06:55;0.50;99.90
8563;DHT22;16392;52.508;13.468;2024-03-08T05:09:22;0.40;99.90
8563;DHT22;16392;52.508;13.468;2024-03-08T05:11:49;0.50;99.90
8563;DHT22;16392;52.508;13.468;2024-03-08T05:14:17;0.50;99.90
8563;DHT22;16392;52.508;13.468;2024-03-08T05:16:46;0.40;99.90
8563;DHT22;16392;52.508;13.468;2024-03-08T05:19:14;0.40;99.90
8563;DHT22;16392;52.508;13.468;2024-03-08T05:21:43;0.40;99.90
8563;DHT22;16392;52.508;13.468;2024-03-08T05:24:10;0.30;99.90
8563;DHT22;16392;52.508;13.468;2024-03-08T05:26:37;0.40;99.90
8563;DHT22;16392;52.508;13.468;2024-03-08T05:29:04;0.40;99.90
8563;DHT22;16392;52.508;13.468;2024-03-08T05:31:38;0.30;99.90
8563;DHT22;16392;52.508;13.468;2024-03-08T05:34:09;0.30;99.90
8563;DHT22;16392;52.508;13.468;2024-03-08T05:36:36;0.30;99.90
8563;DHT22;16392;52.508;13.468;2024-03-08T05:39:03;0.30;99.90
8563;DHT22;16392;52.508;13.468;2024-03-08T05:41:31;0.30;99.90
8563;DHT22;16392;52.508;13.468;2024-03-08T05:43:59;0.20;99.90
8563;DHT22;16392;52.508;13.468;2024-03-08T05:46:26;0.20;99.90
8563;DHT22;16392;52.508;13.468;2024-03-08T05:48:55;0.20;99.90
8563;DHT22;16392;52.508;13.468;2024-03-08T05:51:23;0.20;99.90
8563;DHT22;16392;52.508;13.468;2024-03-08T05:53:51;0.20;99.90
8563;DHT22;16392;52.508;13.468;2024-03-08T05:56:18;0.10;99.90
8563;DHT22;16392;52.508;13.468;2024-03-08T05:58:45;0.20;99.90
8563;DHT22;16392;52.508;13.468;2024-03-08T06:01:14;0.30;99.90
8563;DHT22;16392;52.508;13.468;2024-03-08T06:03:41;0.50;99.90
8563;DHT22;16392;52.508;13.468;2024-03-08T06:06:12;0.80;99.90
8563;DHT22;16392;52.508;13.468;2024-03-08T06:08:38;0.90;99.90
8563;DHT22;16392;52.508;13.468;2024-03-08T06:11:05;1.10;99.90
8563;DHT22;16392;52.508;13.468;2024-03-08T06:13:32;1.40;99.90
8563;DHT22;16392;52.508;13.468;2024-03-08T06:15:59;1.60;99.90
8563;DHT22;16392;52.508;13.468;2024-03-08T06:18:26;1.80;99.90
8563;DHT22;16392;52.508;13.468;2024-03-08T06:20:54;2.00;99.90
8563;DHT22;16392;52.508;13.468;2024-03-08T06:23:23;2.20;99.90
8563;DHT22;16392;52.508;13.468;2024-03-08T06:25:50;2.40;99.90
8563;DHT22;16392;52.508;13.468;2024-03-08T06:28:16;2.40;99.90
8563;DHT22;16392;52.508;13.468;2024-03-08T06:30:43;2.60;99.90
8563;DHT22;16392;52.508;13.468;2024-03-08T06:33:10;2.70;99.90
8563;DHT22;16392;52.508;13.468;2024-03-08T06:35:37;2.80;99.90
8563;DHT22;16392;52.508;13.468;2024-03-08T06:38:04;2.80;99.90
8563;DHT22;16392;52.508;13.468;2024-03-08T06:40:33;2.80;99.90
8563;DHT22;16392;52.508;13.468;2024-03-08T06:43:00;3.10;99.90
8563;DHT22;16392;52.508;13.468;2024-03-08T06:45:26;3.50;99.90
8563;DHT22;16392;52.508;13.468;2024-03-08T06:47:54;3.80;99.90
8563;DHT22;16392;52.508;13.468;2024-03-08T06:50:20;3.70;99.90
8563;DHT22;16392;52.508;13.468;2024-03-08T06:52:47;3.70;99.90
8563;DHT22;16392;52.508;13.468;2024-03-08T06:55:19;4.10;99.90
8563;DHT22;16392;52.508;13.468;2024-03-08T06:57:47;4.20;99.90
8563;DHT22;16392;52.508;13.468;2024-03-08T07:00:14;4.00;99.90
8563;DHT22;16392;52.508;13.468;2024-03-08T07:02:44;4.10;99.90
8563;DHT22;16392;52.508;13.468;2024-03-08T07:05:11;4.30;99.90
8563;DHT22;16392;52.508;13.468;2024-03-08T07:07:38;4.40;99.90
8563;DHT22;16392;52.508;13.468;2024-03-08T07:10:07;4.70;99.90
8563;DHT22;16392;52.508;13.468;2024-03-08T07:12:36;4.90;99.90
8563;DHT22;16392;52.508;13.468;2024-03-08T07:15:05;4.80;99.90
8563;DHT22;16392;52.508;13.468;2024-03-08T07:17:33;4.80;99.90
8563;DHT22;16392;52.508;13.468;2024-03-08T07:20:00;5.20;99.90
8563;DHT22;16392;52.508;13.468;2024-03-08T07:22:33;4.70;99.90
8563;DHT22;16392;52.508;13.468;2024-03-08T07:25:02;5.10;99.90
8563;DHT22;16392;52.508;13.468;2024-03-08T07:27:47;5.40;99.90
8563;DHT22;16392;52.508;13.468;2024-03-08T07:30:15;5.40;99.90
8563;DHT22;16392;52.508;13.468;2024-03-08T07:32:59;5.60;99.90
8563;DHT22;16392;52.508;13.468;2024-03-08T07:35:27;6.30;99.90
8563;DHT22;16392;52.508;13.468;2024-03-08T07:37:55;6.30;99.90
8563;DHT22;16392;52.508;13.468;2024-03-08T07:40:22;6.10;99.90
8563;DHT22;16392;52.508;13.468;2024-03-08T07:42:50;5.70;99.90
8563;DHT22;16392;52.508;13.468;2024-03-08T07:45:19;5.90;99.90
8563;DHT22;16392;52.508;13.468;2024-03-08T07:47:48;5.80;99.90
8563;DHT22;16392;52.508;13.468;2024-03-08T07:50:16;6.10;99.90
8563;DHT22;16392;52.508;13.468;2024-03-08T07:52:43;6.10;99.90
8563;DHT22;16392;52.508;13.468;2024-03-08T07:55:10;6.20;99.90
8563;DHT22;16392;52.508;13.468;2024-03-08T07:57:37;6.10;99.90
8563;DHT22;16392;52.508;13.468;2024-03-08T08:00:05;6.60;99.90
8563;DHT22;16392;52.508;13.468;2024-03-08T08:02:35;7.10;99.90
8563;DHT22;16392;52.508;13.468;2024-03-08T08:05:02;6.80;99.90
8563;DHT22;16392;52.508;13.468;2024-03-08T08:07:29;6.90;99.90
8563;DHT22;16392;52.508;13.468;2024-03-08T08:09:57;7.60;99.90
8563;DHT22;16392;52.508;13.468;2024-03-08T08:12:23;8.10;99.90
8563;DHT22;16392;52.508;13.468;2024-03-08T08:14:53;8.30;99.90
8563;DHT22;16392;52.508;13.468;2024-03-08T08:17:19;7.10;99.90
8563;DHT22;16392;52.508;13.468;2024-03-08T08:19:48;7.70;99.90
8563;DHT22;16392;52.508;13.468;2024-03-08T08:22:17;8.20;99.90
8563;DHT22;16392;52.508;13.468;2024-03-08T08:24:45;8.30;99.90
8563;DHT22;16392;52.508;13.468;2024-03-08T08:27:12;8.60;99.90
8563;DHT22;16392;52.508;13.468;2024-03-08T08:29:40;7.80;99.90
8563;DHT22;16392;52.508;13.468;2024-03-08T08:32:09;8.40;99.90
8563;DHT22;16392;52.508;13.468;2024-03-08T08:34:36;8.00;99.90
8563;DHT22;16392;52.508;13.468;2024-03-08T08:37:06;8.80;99.90
8563;DHT22;16392;52.508;13.468;2024-03-08T08:39:35;9.40;99.90
8563;DHT22;16392;52.508;13.468;2024-03-08T08:42:06;9.20;99.90
8563;DHT22;16392;52.508;13.468;2024-03-08T08:44:35;8.00;99.90
8563;DHT22;16392;52.508;13.468;2024-03-08T08:47:02;8.20;99.90
8563;DHT22;16392;52.508;13.468;2024-03-08T08:49:29;8.20;99.90
8563;DHT22;16392;52.508;13.468;2024-03-08T08:51:58;8.60;99.90
8563;DHT22;16392;52.508;13.468;2024-03-08T08:54:29;8.10;99.90
8563;DHT22;16392;52.508;13.468;2024-03-08T08:56:57;7.70;99.90
8563;DHT22;16392;52.508;13.468;2024-03-08T08:59:26;8.70;99.90
8563;DHT22;16392;52.508;13.468;2024-03-08T09:01:53;9.00;99.90
8563;DHT22;16392;52.508;13.468;2024-03-08T09:04:22;8.80;99.90
8563;DHT22;16392;52.508;13.468;2024-03-08T09:06:51;9.00;99.90
8563;DHT22;16392;52.508;13.468;2024-03-08T09:09:20;8.70;99.90
8563;DHT22;16392;52.508;13.468;2024-03-08T09:11:49;8.70;99.90
8563;DHT22;16392;52.508;13.468;2024-03-08T09:14:15;8.10;99.90
8563;DHT22;16392;52.508;13.468;2024-03-08T09:16:48;9.10;99.90
8563;DHT22;16392;52.508;13.468;2024-03-08T09:19:15;9.60;99.90
8563;DHT22;16392;52.508;13.468;2024-03-08T09:21:42;9.90;99.90
8563;DHT22;16392;52.508;13.468;2024-03-08T09:24:25;9.90;99.90
8563;DHT22;16392;52.508;13.468;2024-03-08T09:26:56;9.50;99.90
8563;DHT22;16392;52.508;13.468;2024-03-08T09:29:33;9.20;99.90
8563;DHT22;16392;52.508;13.468;2024-03-08T09:32:02;9.40;99.90
8563;DHT22;16392;52.508;13.468;2024-03-08T09:34:29;9.60;99.90
8563;DHT22;16392;52.508;13.468;2024-03-08T09:36:55;9.30;99.90
8563;DHT22;16392;52.508;13.468;2024-03-08T09:39:23;9.20;99.90
8563;DHT22;16392;52.508;13.468;2024-03-08T09:41:50;10.20;99.90
8563;DHT22;16392;52.508;13.468;2024-03-08T09:44:18;10.10;99.90
8563;DHT22;16392;52.508;13.468;2024-03-08T09:46:45;9.80;99.90
8563;DHT22;16392;52.508;13.468;2024-03-08T09:49:13;9.40;99.90
8563;DHT22;16392;52.508;13.468;2024-03-08T09:51:40;9.50;99.90
8563;DHT22;16392;52.508;13.468;2024-03-08T09:54:09;8.80;99.90
8563;DHT22;16392;52.508;13.468;2024-03-08T09:56:37;10.20;99.90
8563;DHT22;16392;52.508;13.468;2024-03-08T09:59:06;9.90;99.90
8563;DHT22;16392;52.508;13.468;2024-03-08T10:01:59;9.30;99.90
8563;DHT22;16392;52.508;13.468;2024-03-08T10:04:28;10.50;99.90
8563;DHT22;16392;52.508;13.468;2024-03-08T10:06:57;10.00;99.90
8563;DHT22;16392;52.508;13.468;2024-03-08T10:09:24;10.70;99.90
8563;DHT22;16392;52.508;13.468;2024-03-08T10:11:53;10.00;99.90
8563;DHT22;16392;52.508;13.468;2024-03-08T10:14:21;9.50;99.90
8563;DHT22;16392;52.508;13.468;2024-03-08T10:16:48;10.10;99.90
8563;DHT22;16392;52.508;13.468;2024-03-08T10:19:16;10.40;99.90
8563;DHT22;16392;52.508;13.468;2024-03-08T10:21:48;10.40;99.90
8563;DHT22;16392;52.508;13.468;2024-03-08T10:24:15;11.00;99.90
8563;DHT22;16392;52.508;13.468;2024-03-08T10:26:43;10.60;99.90
8563;DHT22;16392;52.508;13.468;2024-03-08T10:29:10;11.60;99.90
8563;DHT22;16392;52.508;13.468;2024-03-08T10:31:43;12.30;99.90
8563;DHT22;16392;52.508;13.468;2024-03-08T10:34:09;11.40;99.90
8563;DHT22;16392;52.508;13.468;2024-03-08T10:36:39;10.50;99.90
8563;DHT22;16392;52.508;13.468;2024-03-08T10:39:12;9.90;99.90
8563;DHT22;16392;52.508;13.468;2024-03-08T10:41:41;10.20;99.90
8563;DHT22;16392;52.508;13.468;2024-03-08T10:44:18;10.70;99.90
8563;DHT22;16392;52.508;13.468;2024-03-08T10:47:00;10.50;99.90
8563;DHT22;16392;52.508;13.468;2024-03-08T10:49:31;11.00;99.90
8563;DHT22;16392;52.508;13.468;2024-03-08T10:52:03;10.90;99.90
8563;DHT22;16392;52.508;13.468;2024-03-08T10:54:31;11.30;99.90
8563;DHT22;16392;52.508;13.468;2024-03-08T10:56:59;11.40;99.90
8563;DHT22;16392;52.508;13.468;2024-03-08T10:59:30;11.10;99.90
8563;DHT22;16392;52.508;13.468;2024-03-08T11:01:59;11.20;99.90
8563;DHT22;16392;52.508;13.468;2024-03-08T11:04:26;10.80;99.90
8563;DHT22;16392;52.508;13.468;2024-03-08T11:07:00;11.50;99.90
8563;DHT22;16392;52.508;13.468;2024-03-08T11:09:35;10.80;99.90
8563;DHT22;16392;52.508;13.468;2024-03-08T11:12:19;11.10;99.90
8563;DHT22;16392;52.508;13.468;2024-03-08T11:14:47;12.20;99.90
8563;DHT22;16392;52.508;13.468;2024-03-08T11:17:15;11.90;99.90
8563;DHT22;16392;52.508;13.468;2024-03-08T11:19:47;11.50;99.90
8563;DHT22;16392;52.508;13.468;2024-03-08T11:22:23;11.10;99.90
8563;DHT22;16392;52.508;13.468;2024-03-08T11:24:53;12.30;99.90
8563;DHT22;16392;52.508;13.468;2024-03-08T11:27:28;12.50;99.90
8563;DHT22;16392;52.508;13.468;2024-03-08T11:30:01;11.70;99.90
8563;DHT22;16392;52.508;13.468;2024-03-08T11:32:37;12.30;99.90
8563;DHT22;16392;52.508;13.468;2024-03-08T11:35:07;12.40;99.90
8563;DHT22;16392;52.508;13.468;2024-03-08T11:37:34;11.60;99.90
8563;DHT22;16392;52.508;13.468;2024-03-08T11:40:11;11.20;99.90
8563;DHT22;16392;52.508;13.468;2024-03-08T11:42:44;11.90;99.90
8563;DHT22;16392;52.508;13.468;2024-03-08T11:45:12;11.70;99.90
8563;DHT22;16392;52.508;13.468;2024-03-08T11:47:45;12.30;99.90
8563;DHT22;16392;52.508;13.468;2024-03-08T11:50:16;11.80;99.90
8563;DHT22;16392;52.508;13.468;2024-03-08T11:52:48;13.20;99.90
8563;DHT22;16392;52.508;13.468;2024-03-08T11:55:17;13.00;99.90
8563;DHT22;16392;52.508;13.468;2024-03-08T11:57:49;13.90;99.90
8563;DHT22;16392;52.508;13.468;2024-03-08T12:00:19;13.10;99.90
8563;DHT22;16392;52.508;13.468;2024-03-08T12:03:01;12.20;99.90
8563;DHT22;16392;52.508;13.468;2024-03-08T12:05:29;12.10;99.90
8563;DHT22;16392;52.508;13.468;2024-03-08T12:07:58;12.80;99.90
8563;DHT22;16392;52.508;13.468;2024-03-08T12:10:28;13.00;99.90
8563;DHT22;16392;52.508;13.468;2024-03-08T12:12:56;12.90;99.90
8563;DHT22;16392;52.508;13.468;2024-03-08T12:15:25;13.10;99.90
8563;DHT22;16392;52.508;13.468;2024-03-08T12:17:54;12.30;99.90
8563;DHT22;16392;52.508;13.468;2024-03-08T12:20:22;13.00;99.90
8563;DHT22;16392;52.508;13.468;2024-03-08T12:22:50;12.30;99.90
8563;DHT22;16392;52.508;13.468;2024-03-08T12:25:21;13.30;99.90
8563;DHT22;16392;52.508;13.468;2024-03-08T12:27:52;12.80;99.90
8563;DHT22;16392;52.508;13.468;2024-03-08T12:30:23;12.00;99.90
8563;DHT22;16392;52.508;13.468;2024-03-08T12:32:55;11.40;99.90
8563;DHT22;16392;52.508;13.468;2024-03-08T12:35:24;11.50;99.90
8563;DHT22;16392;52.508;13.468;2024-03-08T12:37:53;12.20;99.90
8563;DHT22;16392;52.508;13.468;2024-03-08T12:40:26;12.00;99.90
8563;DHT22;16392;52.508;13.468;2024-03-08T12:42:57;13.80;99.90
8563;DHT22;16392;52.508;13.468;2024-03-08T12:45:24;12.50;99.90
8563;DHT22;16392;52.508;13.468;2024-03-08T12:47:52;11.30;99.90
8563;DHT22;16392;52.508;13.468;2024-03-08T12:50:21;11.00;99.90
8563;DHT22;16392;52.508;13.468;2024-03-08T12:52:48;11.80;99.90
8563;DHT22;16392;52.508;13.468;2024-03-08T12:55:16;11.60;99.90
8563;DHT22;16392;52.508;13.468;2024-03-08T12:57:47;11.30;99.90
8563;DHT22;16392;52.508;13.468;2024-03-08T13:00:20;11.50;99.90
8563;DHT22;16392;52.508;13.468;2024-03-08T13:02:52;11.50;99.90
8563;DHT22;16392;52.508;13.468;2024-03-08T13:05:21;12.60;99.90
8563;DHT22;16392;52.508;13.468;2024-03-08T13:07:48;12.80;99.90
8563;DHT22;16392;52.508;13.468;2024-03-08T13:10:16;11.80;99.90
8563;DHT22;16392;52.508;13.468;2024-03-08T13:12:46;11.60;99.90
8563;DHT22;16392;52.508;13.468;2024-03-08T13:15:14;11.80;99.90
8563;DHT22;16392;52.508;13.468;2024-03-08T13:17:49;11.60;99.90
8563;DHT22;16392;52.508;13.468;2024-03-08T13:20:22;11.50;99.90
8563;DHT22;16392;52.508;13.468;2024-03-08T13:22:50;10.90;99.90
8563;DHT22;16392;52.508;13.468;2024-03-08T13:25:17;11.40;99.90
8563;DHT22;16392;52.508;13.468;2024-03-08T13:27:48;12.80;99.90
8563;DHT22;16392;52.508;13.468;2024-03-08T13:30:15;12.70;99.90
8563;DHT22;16392;52.508;13.468;2024-03-08T13:33:12;11.60;99.90
8563;DHT22;16392;52.508;13.468;2024-03-08T13:35:46;12.00;99.90
8563;DHT22;16392;52.508;13.468;2024-03-08T13:38:13;12.90;99.90
8563;DHT22;16392;52.508;13.468;2024-03-08T13:40:40;12.00;99.90
8563;DHT22;16392;52.508;13.468;2024-03-08T13:43:10;11.20;99.90
8563;DHT22;16392;52.508;13.468;2024-03-08T13:45:39;10.80;99.90
8563;DHT22;16392;52.508;13.468;2024-03-08T13:48:20;10.00;99.90
8563;DHT22;16392;52.508;13.468;2024-03-08T13:50:48;9.80;99.90
8563;DHT22;16392;52.508;13.468;2024-03-08T13:53:17;9.90;99.90
8563;DHT22;16392;52.508;13.468;2024-03-08T13:55:44;9.60;99.90
8563;DHT22;16392;52.508;13.468;2024-03-08T13:58:13;9.50;99.90
8563;DHT22;16392;52.508;13.468;2024-03-08T14:00:40;9.60;99.90
8563;DHT22;16392;52.508;13.468;2024-03-08T14:03:22;9.40;99.90
8563;DHT22;16392;52.508;13.468;2024-03-08T14:05:52;9.40;99.90
8563;DHT22;16392;52.508;13.468;2024-03-08T14:08:22;9.40;99.90
8563;DHT22;16392;52.508;13.468;2024-03-08T14:10:50;9.50;99.90
8563;DHT22;16392;52.508;13.468;2024-03-08T14:13:20;9.60;99.90
8563;DHT22;16392;52.508;13.468;2024-03-08T14:15:48;9.40;99.90
8563;DHT22;16392;52.508;13.468;2024-03-08T14:18:15;9.40;99.90
8563;DHT22;16392;52.508;13.468;2024-03-08T14:20:43;9.40;99.90
8563;DHT22;16392;52.508;13.468;2024-03-08T14:23:10;9.30;99.90
8563;DHT22;16392;52.508;13.468;2024-03-08T14:25:38;9.20;99.90
8563;DHT22;16392;52.508;13.468;2024-03-08T14:28:05;9.20;99.90
8563;DHT22;16392;52.508;13.468;2024-03-08T14:30:33;9.30;99.90
8563;DHT22;16392;52.508;13.468;2024-03-08T14:33:04;9.40;99.90
8563;DHT22;16392;52.508;13.468;2024-03-08T14:35:34;9.20;99.90
8563;DHT22;16392;52.508;13.468;2024-03-08T14:38:04;9.10;99.90
8563;DHT22;16392;52.508;13.468;2024-03-08T14:40:35;9.10;99.90
8563;DHT22;16392;52.508;13.468;2024-03-08T14:43:02;9.10;99.90
8563;DHT22;16392;52.508;13.468;2024-03-08T14:45:30;9.00;99.90
8563;DHT22;16392;52.508;13.468;2024-03-08T14:47:57;9.00;99.90
8563;DHT22;16392;52.508;13.468;2024-03-08T14:50:25;9.00;99.90
8563;DHT22;16392;52.508;13.468;2024-03-08T14:52:53;9.00;99.90
8563;DHT22;16392;52.508;13.468;2024-03-08T14:55:21;9.00;99.90
8563;DHT22;16392;52.508;13.468;2024-03-08T14:57:49;9.00;99.90
8563;DHT22;16392;52.508;13.468;2024-03-08T15:00:18;9.10;99.90
8563;DHT22;16392;52.508;13.468;2024-03-08T15:02:52;9.10;99.90
8563;DHT22;16392;52.508;13.468;2024-03-08T15:05:20;9.10;99.90
8563;DHT22;16392;52.508;13.468;2024-03-08T15:07:52;9.10;99.90
8563;DHT22;16392;52.508;13.468;2024-03-08T15:10:23;9.00;99.90
8563;DHT22;16392;52.508;13.468;2024-03-08T15:12:51;9.00;99.90
8563;DHT22;16392;52.508;13.468;2024-03-08T15:15:21;9.00;99.90
8563;DHT22;16392;52.508;13.468;2024-03-08T15:17:50;9.00;99.90
8563;DHT22;16392;52.508;13.468;2024-03-08T15:20:19;8.90;99.90
8563;DHT22;16392;52.508;13.468;2024-03-08T15:22:51;9.00;99.90
8563;DHT22;16392;52.508;13.468;2024-03-08T15:25:22;9.00;99.90
8563;DHT22;16392;52.508;13.468;2024-03-08T15:27:52;9.00;99.90
8563;DHT22;16392;52.508;13.468;2024-03-08T15:30:22;8.90;99.90
8563;DHT22;16392;52.508;13.468;2024-03-08T15:32:54;8.90;99.90
8563;DHT22;16392;52.508;13.468;2024-03-08T15:35:25;8.90;99.90
8563;DHT22;16392;52.508;13.468;2024-03-08T15:38:03;8.90;99.90
8563;DHT22;16392;52.508;13.468;2024-03-08T15:40:33;8.90;99.90
8563;DHT22;16392;52.508;13.468;2024-03-08T15:43:05;8.80;99.90
8563;DHT22;16392;52.508;13.468;2024-03-08T15:45:37;8.80;99.90
8563;DHT22;16392;52.508;13.468;2024-03-08T15:48:07;8.80;99.90
8563;DHT22;16392;52.508;13.468;2024-03-08T15:50:35;8.80;99.90
8563;DHT22;16392;52.508;13.468;2024-03-08T15:53:04;8.80;99.90